Lumberton, North Carolina
Current Conditions -  °F | °C
As of 6:54 AM on Sunday 25 Jan 2015 (Local Time) from KLBT Reporting Station
Clear Clear  
Wind Chill: 31°   Ceiling: Unl
Heat Index: 31°   Visibility: 10mi
Dew Point: 29°   Wind: 3mph
Humidity: 92%   Direction: 240°WSW
Pressure: 29.94"   Gusts: NA
Location:  34.62°N, 79.01°W
Report Text: KLBT 251154Z AUTO 24003KT 10SM CLR M01/M02 A2994 RMK AO2 SLP139 70009 I1000 I6001 T10061017 10028 21006 53014
Loading
Personal Weather Stations






























Interactive Weather Map New forecast layout! Learn more

10-Day Weather Forecast

Advertisements
Track Severe Weather on mobile